Puerto Maldonado, Bolivia

6:20 PM -04 en Mayo 28, 2017 (GMT -0400)
Padre Aldamiz | | Change Station

Alt 873 ft 12.63 °S, 69.20 °W | Updated 20 minutes ago

Nublado
Nublado
73 ° F
Sensación térmica 73 ° F
N
6
Viento Variable Viento desde ESE

Hoy
Alta -- | Baja -- ° F
--% Posibilidad de precipitaciones
Ayer
Alta -- | Baja -- ° F
Precip. -- pul
Presión 29.92 pul
Visibilidad 3.7 Millas
Nubes Nubes dispersas 800 ft
Muy nublado 1000 ft
Nublado 2000 ft
Punto de rocío 70 ° F
Humedad 88%
Precipitaciones 0.00 pul
Espesor de la nieve No disponible.
6:48 AM 6:16 PM
Creciente, 14% visible
METAR SPTU 282200Z 12005KT 6000 SCT008 BKN010 OVC020 23/21 Q1013 RMK BIRD HAZARD RWY 01/19 TX25.6 PP000
Presión 29.92 pul
Visibilidad 3.7 Millas
Nubes Nubes dispersas 800 ft
Muy nublado 1000 ft
Nublado 2000 ft
Punto de rocío 70 ° F
Humedad 88%
Precipitaciones 0.00 pul
Espesor de la nieve No disponible.
6:48 AM 6:16 PM
Creciente, 14% visible
METAR SPTU 282200Z 12005KT 6000 SCT008 BKN010 OVC020 23/21 Q1013 RMK BIRD HAZARD RWY 01/19 TX25.6 PP000

Get Severe Weather Alerts

Thanks for signing up!

Be on the lookout for a verification email in your inbox.

You'll start receiving the daily forecast at 6 AM.

×

10-Day Weather Forecast

No radar image for this location.
×

Almanac

Astronomía

May. 28, 2017 Salida Puesta
Hora real
Crepúsculo civil
Crepúsculo náutico
Crepúsculo astronómico
Luna
Horas de luz
Horas de luz
Tomorrow will be .
, % of the Moon is Illuminated

Extremos de hoy

Máximos del país Bajas del país

Community

WunderPhotos

Category 6

Welcome to Category 6. This is the collective home for Weather Underground's featured writeups by Dr. Jeff Masters (right), Bob Henson (left), Chris Burt, and other regular contributors.

Nearby

Calidad del aire

  Calidad del aire Índice AQ Contaminante
Not available.

Grosos de nieve

Estación Profundido Altura

Actividad de terremotos

Ciudad Distance Mag. Tiempo y dato
Magnitud mínima muestra es 2,5.

Temperaturas de aguas costeras

Lugar Temperatura

Stations

Estaciones meteorológicas cercanas

Ubicación de la estación Temp. Vientos helados Punto de rocío Humedad Viento Precip. Alt Actualizado Tipo